createdAt,value
2019-03-03T00:00:51.752Z,88.50
2019-03-03T00:03:21.036Z,88.30
2019-03-03T00:05:50.304Z,88.10
2019-03-03T00:08:20.659Z,88.00
2019-03-03T00:10:50.229Z,87.80
2019-03-03T00:13:19.505Z,87.50
2019-03-03T00:15:48.775Z,87.30
2019-03-03T00:18:18.044Z,87.20
2019-03-03T00:21:05.124Z,86.90
2019-03-03T00:23:36.020Z,86.90
2019-03-03T00:26:05.293Z,86.90
2019-03-03T00:28:35.544Z,86.90
2019-03-03T00:31:04.829Z,86.80
2019-03-03T00:33:34.105Z,86.70
2019-03-03T00:36:03.386Z,86.60
2019-03-03T00:38:34.383Z,86.50
2019-03-03T00:41:17.593Z,86.50
2019-03-03T00:43:51.237Z,86.50
2019-03-03T00:46:25.041Z,86.50
2019-03-03T00:49:04.687Z,86.40
2019-03-03T00:51:38.356Z,86.60
2019-03-03T00:54:12.154Z,86.60
2019-03-03T00:56:45.697Z,86.60
2019-03-03T00:59:19.058Z,86.80
2019-03-03T01:01:55.913Z,86.70
2019-03-03T01:04:26.820Z,86.50
2019-03-03T01:07:14.126Z,86.50
2019-03-03T01:09:57.175Z,86.60
2019-03-03T01:12:28.860Z,86.60
2019-03-03T01:15:05.826Z,86.60
2019-03-03T01:17:39.664Z,86.50
2019-03-03T01:20:11.776Z,86.60
2019-03-03T01:22:54.970Z,86.50
2019-03-03T01:25:24.256Z,86.50
2019-03-03T01:27:53.587Z,86.40
2019-03-03T01:30:22.861Z,86.40
2019-03-03T01:32:52.127Z,86.30
2019-03-03T01:35:21.402Z,86.40
2019-03-03T01:37:50.667Z,86.40
2019-03-03T01:40:19.937Z,86.50
2019-03-03T01:42:49.207Z,86.50
2019-03-03T01:45:18.562Z,86.50
2019-03-03T01:47:47.825Z,86.50
2019-03-03T01:50:17.169Z,86.40
2019-03-03T01:52:46.431Z,86.50
2019-03-03T01:55:15.708Z,86.50
2019-03-03T01:57:44.968Z,86.50
2019-03-03T02:00:27.705Z,86.50
2019-03-03T02:02:58.005Z,86.40
2019-03-03T02:05:27.422Z,86.10
2019-03-03T02:07:56.687Z,86.20
2019-03-03T02:10:25.960Z,86.10
2019-03-03T02:12:55.229Z,86.10
2019-03-03T02:15:24.492Z,86.20
2019-03-03T02:17:53.823Z,86.10
2019-03-03T02:20:23.097Z,86.10
2019-03-03T02:22:52.358Z,86.20
2019-03-03T02:25:21.703Z,86.20
2019-03-03T02:27:51.028Z,86.40
2019-03-03T02:30:21.683Z,86.20
2019-03-03T02:32:51.064Z,86.30
2019-03-03T02:35:20.381Z,86.40
2019-03-03T02:37:49.660Z,86.60
2019-03-03T02:40:19.701Z,86.60
2019-03-03T02:42:49.081Z,86.60
2019-03-03T02:45:19.018Z,86.70
2019-03-03T02:47:48.279Z,86.70
2019-03-03T02:50:17.625Z,86.80
2019-03-03T02:52:46.898Z,86.80
2019-03-03T02:55:18.074Z,86.90
2019-03-03T02:57:47.337Z,87.00
2019-03-03T03:00:24.104Z,87.00
2019-03-03T03:02:55.013Z,87.10
2019-03-03T03:05:39.658Z,87.00
2019-03-03T03:08:12.991Z,87.10
2019-03-03T03:10:49.893Z,87.10
2019-03-03T03:13:20.797Z,87.10
2019-03-03T03:15:54.719Z,87.20
2019-03-03T03:18:25.621Z,87.30
2019-03-03T03:20:59.496Z,87.40
2019-03-03T03:23:36.084Z,87.50
2019-03-03T03:26:07.002Z,87.40
2019-03-03T03:28:37.915Z,87.40
2019-03-03T03:31:11.786Z,88.20
2019-03-03T03:33:48.451Z,87.40
2019-03-03T03:36:19.413Z,87.50
2019-03-03T03:38:53.272Z,87.50
2019-03-03T03:41:26.879Z,87.70
2019-03-03T03:43:57.777Z,87.70
2019-03-03T03:46:31.381Z,87.80
2019-03-03T03:49:20.312Z,87.80
2019-03-03T03:52:09.365Z,87.80
2019-03-03T03:54:55.441Z,87.80
2019-03-03T03:57:31.922Z,87.70
2019-03-03T04:00:08.507Z,87.70
2019-03-03T04:02:57.317Z,87.70
2019-03-03T04:05:34.225Z,87.60
2019-03-03T04:08:08.029Z,87.60
2019-03-03T04:10:38.951Z,87.50
2019-03-03T04:13:15.939Z,87.60
2019-03-03T04:15:52.597Z,87.40
2019-03-03T04:18:23.498Z,87.30
2019-03-03T04:21:00.169Z,88.00
2019-03-03T04:23:36.979Z,87.10
2019-03-03T04:26:08.077Z,86.80
2019-03-03T04:28:48.053Z,86.70
2019-03-03T04:31:19.008Z,86.60
2019-03-03T04:33:51.101Z,86.50
2019-03-03T04:36:22.009Z,86.40
2019-03-03T04:38:59.095Z,86.10
2019-03-03T04:41:42.010Z,86.00
2019-03-03T04:44:18.597Z,85.90
2019-03-03T04:46:52.213Z,85.70
2019-03-03T04:49:23.130Z,85.50
2019-03-03T04:52:03.064Z,85.60
2019-03-03T04:54:40.966Z,85.40
2019-03-03T04:57:14.560Z,85.40
2019-03-03T04:59:45.477Z,85.40
2019-03-03T05:02:34.120Z,85.40
2019-03-03T05:05:05.121Z,85.40
2019-03-03T05:07:41.992Z,85.50
2019-03-03T05:10:15.660Z,85.50
2019-03-03T05:12:52.582Z,85.50
2019-03-03T05:15:23.502Z,85.40
2019-03-03T05:18:06.685Z,85.50
2019-03-03T05:20:46.388Z,85.70
2019-03-03T05:23:15.693Z,85.50
2019-03-03T05:25:45.014Z,85.30
2019-03-03T05:28:14.335Z,85.20
2019-03-03T05:30:43.793Z,85.10
2019-03-03T05:33:13.099Z,85.00
2019-03-03T05:35:42.361Z,84.90
2019-03-03T05:38:12.122Z,85.40
2019-03-03T05:40:41.435Z,84.80
2019-03-03T05:43:10.766Z,84.70
2019-03-03T05:45:40.043Z,84.80
2019-03-03T05:48:10.380Z,84.80
2019-03-03T05:50:42.354Z,84.90
2019-03-03T05:55:50.466Z,84.90
2019-03-03T05:58:19.749Z,84.80
2019-03-03T06:00:49.025Z,84.80
2019-03-03T06:03:18.300Z,84.80
2019-03-03T06:05:47.579Z,84.70
2019-03-03T06:08:16.861Z,84.60
2019-03-03T06:10:46.124Z,84.50
2019-03-03T06:13:15.407Z,84.40
2019-03-03T06:15:44.676Z,84.30
2019-03-03T06:18:13.951Z,84.20
2019-03-03T06:20:43.493Z,84.10
2019-03-03T06:23:12.768Z,83.90
2019-03-03T06:25:42.041Z,83.90
2019-03-03T06:28:11.321Z,83.90
2019-03-03T06:30:40.593Z,83.90
2019-03-03T06:33:09.872Z,83.70
2019-03-03T06:35:39.141Z,83.60
2019-03-03T06:38:08.412Z,83.70
2019-03-03T06:40:37.684Z,83.70
2019-03-03T06:43:06.961Z,83.70
2019-03-03T06:45:36.264Z,83.60
2019-03-03T06:48:05.546Z,83.50
2019-03-03T06:50:34.816Z,83.70
2019-03-03T06:53:04.099Z,83.80
2019-03-03T06:55:33.361Z,84.10
2019-03-03T06:58:02.645Z,84.30
2019-03-03T07:00:31.981Z,84.50
2019-03-03T07:03:01.293Z,85.00
2019-03-03T07:05:30.559Z,85.30
2019-03-03T07:07:59.871Z,85.60
2019-03-03T07:10:29.112Z,85.70
2019-03-03T07:12:58.397Z,85.90
2019-03-03T07:15:28.734Z,85.90
2019-03-03T07:17:58.282Z,86.00
2019-03-03T07:20:27.834Z,85.90
2019-03-03T07:22:57.772Z,86.20
2019-03-03T07:25:27.049Z,86.10
2019-03-03T07:27:56.328Z,86.20
2019-03-03T07:30:25.597Z,86.20
2019-03-03T07:33:05.775Z,86.30
2019-03-03T07:35:35.049Z,86.30
2019-03-03T07:38:04.328Z,86.20
2019-03-03T07:40:33.876Z,86.20
2019-03-03T07:43:03.153Z,86.10
2019-03-03T07:45:32.421Z,86.20
2019-03-03T07:48:01.691Z,86.20
2019-03-03T07:50:30.968Z,86.10
2019-03-03T07:53:00.245Z,86.00
2019-03-03T07:55:29.519Z,86.10
2019-03-03T07:57:58.804Z,86.00
2019-03-03T08:00:29.044Z,86.00
2019-03-03T08:02:58.320Z,85.80
2019-03-03T08:05:27.596Z,85.80
2019-03-03T08:07:56.869Z,85.80
2019-03-03T08:10:26.141Z,85.80
2019-03-03T08:12:55.657Z,85.60
2019-03-03T08:15:24.933Z,85.60
2019-03-03T08:17:54.197Z,85.60
2019-03-03T08:20:23.476Z,85.60
2019-03-03T08:22:52.749Z,85.60
2019-03-03T08:25:22.028Z,85.40
2019-03-03T08:27:51.301Z,85.50
2019-03-03T08:30:20.581Z,85.60
2019-03-03T08:32:49.848Z,86.40
2019-03-03T08:35:22.038Z,85.40
2019-03-03T08:37:51.313Z,85.60
2019-03-03T08:40:22.220Z,85.70
2019-03-03T08:42:53.113Z,85.80
2019-03-03T08:45:27.044Z,86.00
2019-03-03T08:48:14.371Z,85.80
2019-03-03T08:50:47.728Z,85.80
2019-03-03T08:53:21.561Z,85.90
2019-03-03T08:56:01.472Z,85.90
2019-03-03T08:58:34.006Z,86.00
2019-03-03T09:01:19.819Z,86.30
2019-03-03T09:04:05.823Z,86.80
2019-03-03T09:06:39.697Z,87.00
2019-03-03T09:09:16.985Z,87.30
2019-03-03T09:11:50.549Z,88.20
2019-03-03T09:14:21.463Z,88.60
2019-03-03T09:16:55.328Z,87.80
2019-03-03T09:19:39.561Z,88.40
2019-03-03T09:22:10.480Z,88.70
2019-03-03T09:24:44.301Z,89.00
2019-03-03T09:27:27.153Z,89.60
2019-03-03T09:30:14.479Z,90.00
2019-03-03T09:32:51.407Z,90.00
2019-03-03T09:35:25.242Z,90.00
2019-03-03T09:37:58.932Z,90.20
2019-03-03T09:40:32.536Z,90.30
2019-03-03T09:43:19.977Z,90.60
2019-03-03T09:46:00.100Z,90.60
2019-03-03T09:48:48.083Z,90.80
2019-03-03T09:51:28.208Z,91.00
2019-03-03T09:53:59.141Z,91.00
2019-03-03T09:56:39.421Z,91.10
2019-03-03T09:59:16.381Z,91.20
2019-03-03T10:01:50.035Z,91.20
2019-03-03T10:04:20.927Z,91.30
2019-03-03T10:06:51.841Z,91.40
2019-03-03T10:09:39.408Z,91.30
2019-03-03T10:12:10.325Z,91.40
2019-03-03T10:14:47.314Z,91.40
2019-03-03T10:17:20.888Z,91.40
2019-03-03T10:20:00.665Z,91.50
2019-03-03T10:22:43.601Z,91.50
2019-03-03T10:25:14.508Z,91.50
2019-03-03T10:27:48.303Z,91.50
2019-03-03T10:30:31.584Z,91.60
2019-03-03T10:33:05.526Z,91.60
2019-03-03T10:35:48.295Z,91.80
2019-03-03T10:38:19.220Z,91.80
2019-03-03T10:41:02.345Z,91.90
2019-03-03T10:43:33.262Z,91.90
2019-03-03T10:46:10.048Z,92.00
2019-03-03T10:48:40.961Z,92.00
2019-03-03T10:51:24.108Z,92.10
2019-03-03T10:53:55.021Z,92.10
2019-03-03T10:56:31.793Z,92.00
2019-03-03T10:59:08.588Z,92.10
2019-03-03T11:01:51.421Z,92.20
2019-03-03T11:04:37.184Z,92.10
2019-03-03T11:07:19.830Z,92.10
2019-03-03T11:09:53.476Z,92.10
2019-03-03T11:12:24.393Z,92.10
2019-03-03T11:14:55.299Z,92.10
2019-03-03T11:17:32.275Z,92.10
2019-03-03T11:20:05.845Z,92.10
2019-03-03T11:22:38.423Z,92.20
2019-03-03T11:25:13.689Z,92.30
2019-03-03T11:27:50.558Z,92.40
2019-03-03T11:30:21.550Z,92.50
2019-03-03T11:32:52.443Z,92.70
2019-03-03T11:35:23.425Z,92.60
2019-03-03T11:37:54.325Z,92.70
2019-03-03T11:40:25.243Z,92.70
2019-03-03T11:43:02.109Z,92.70
2019-03-03T11:45:51.349Z,92.80
2019-03-03T11:48:23.232Z,92.70
2019-03-03T11:50:57.077Z,92.80
2019-03-03T11:53:37.122Z,92.80
2019-03-03T11:56:08.029Z,92.80
2019-03-03T11:58:41.811Z,92.80
2019-03-03T12:01:24.967Z,92.70
2019-03-03T12:03:55.884Z,92.70
2019-03-03T12:06:26.793Z,92.60
2019-03-03T12:08:57.707Z,92.60
2019-03-03T12:11:28.604Z,92.60
2019-03-03T12:13:59.584Z,92.60
2019-03-03T12:16:33.164Z,92.50
2019-03-03T12:19:16.108Z,92.50
2019-03-03T12:21:47.008Z,92.40
2019-03-03T12:24:35.776Z,92.40
2019-03-03T12:27:23.032Z,92.40
2019-03-03T12:30:02.971Z,92.30
2019-03-03T12:32:36.530Z,92.20
2019-03-03T12:35:15.717Z,92.00
2019-03-03T12:37:49.628Z,91.90
2019-03-03T12:40:32.311Z,91.80
2019-03-03T12:43:06.175Z,91.60
2019-03-03T12:45:37.096Z,91.40
2019-03-03T12:48:08.007Z,91.30
2019-03-03T12:50:38.925Z,91.20
2019-03-03T12:53:15.574Z,91.20
2019-03-03T12:55:52.208Z,91.00
2019-03-03T12:58:23.116Z,90.80
2019-03-03T13:01:12.313Z,90.80
2019-03-03T13:03:45.762Z,90.50
2019-03-03T13:06:25.524Z,90.40
2019-03-03T13:08:59.971Z,90.30
2019-03-03T13:11:38.874Z,90.20
2019-03-03T13:14:09.784Z,90.10
2019-03-03T13:16:40.697Z,89.90
2019-03-03T13:19:17.360Z,89.40
2019-03-03T13:22:04.590Z,87.60
2019-03-03T13:24:51.352Z,87.70
2019-03-03T13:27:25.185Z,86.90
2019-03-03T13:30:12.525Z,87.00
2019-03-03T13:32:55.197Z,87.00
2019-03-03T13:35:38.285Z,85.90
2019-03-03T13:38:11.995Z,86.10
2019-03-03T13:40:42.905Z,86.30
2019-03-03T13:43:12.177Z,86.70
2019-03-03T13:45:41.512Z,86.50
2019-03-03T13:48:10.789Z,85.80
2019-03-03T13:50:40.054Z,86.20
2019-03-03T13:53:09.474Z,86.20
2019-03-03T13:55:38.738Z,86.00
2019-03-03T13:58:08.012Z,86.00
2019-03-03T14:00:37.281Z,86.20
2019-03-03T14:03:06.623Z,86.20
2019-03-03T14:05:35.913Z,85.80
2019-03-03T14:08:05.184Z,86.00
2019-03-03T14:10:34.444Z,85.70
2019-03-03T14:13:05.260Z,85.80
2019-03-03T14:15:34.534Z,85.70
2019-03-03T14:18:03.878Z,85.50
2019-03-03T14:20:33.143Z,85.40
2019-03-03T14:23:02.420Z,85.30
2019-03-03T14:25:31.693Z,85.40
2019-03-03T14:28:00.964Z,85.10
2019-03-03T14:30:30.228Z,85.20
2019-03-03T14:32:59.506Z,85.30
2019-03-03T14:35:28.773Z,85.60
2019-03-03T14:37:58.048Z,85.80
2019-03-03T14:40:27.317Z,86.20
2019-03-03T14:42:56.588Z,86.40
2019-03-03T14:45:25.857Z,86.50
2019-03-03T14:47:55.130Z,86.30
2019-03-03T14:50:24.403Z,86.20
2019-03-03T14:52:55.808Z,86.00
2019-03-03T14:55:25.084Z,85.80
2019-03-03T14:57:54.365Z,85.70
2019-03-03T15:00:33.860Z,85.40
2019-03-03T15:03:06.151Z,85.60
2019-03-03T15:05:36.212Z,85.70
2019-03-03T15:08:06.875Z,85.80
2019-03-03T15:10:36.136Z,85.90
2019-03-03T15:13:05.412Z,86.10
2019-03-03T15:15:39.042Z,86.20
2019-03-03T15:18:08.321Z,86.20
2019-03-03T15:20:37.591Z,86.00
2019-03-03T15:23:06.889Z,86.00
2019-03-03T15:25:36.275Z,87.00
2019-03-03T15:28:05.571Z,86.10
2019-03-03T15:30:34.991Z,85.90
2019-03-03T15:33:04.350Z,85.20
2019-03-03T15:35:33.645Z,85.30
2019-03-03T15:38:03.048Z,85.40
2019-03-03T15:40:32.331Z,85.30
2019-03-03T15:43:02.284Z,85.00
2019-03-03T15:45:31.837Z,84.90
2019-03-03T15:48:01.115Z,84.90
2019-03-03T15:50:30.440Z,84.70
2019-03-03T15:52:59.748Z,84.60
2019-03-03T15:55:31.343Z,84.50
2019-03-03T15:58:00.618Z,84.20
2019-03-03T16:00:40.732Z,84.30
2019-03-03T16:03:10.005Z,84.20
2019-03-03T16:05:39.279Z,85.00
2019-03-03T16:08:08.567Z,84.20
2019-03-03T16:10:37.839Z,84.10
2019-03-03T16:13:07.131Z,84.00
2019-03-03T16:15:36.429Z,83.90
2019-03-03T16:18:05.705Z,83.50
2019-03-03T16:20:35.072Z,83.70
2019-03-03T16:23:04.341Z,83.50
2019-03-03T16:25:33.616Z,83.40
2019-03-03T16:28:02.951Z,83.40
2019-03-03T16:30:32.226Z,83.20
2019-03-03T16:33:01.504Z,83.10
2019-03-03T16:35:30.784Z,83.00
2019-03-03T16:38:00.063Z,82.90
2019-03-03T16:40:39.059Z,82.60
2019-03-03T16:43:00.384Z,82.80
2019-03-03T16:45:29.685Z,82.60
2019-03-03T16:47:58.963Z,82.60
2019-03-03T16:50:28.288Z,82.30
2019-03-03T16:52:57.538Z,83.10
2019-03-03T16:55:26.816Z,82.20
2019-03-03T16:57:56.087Z,82.10
2019-03-03T17:00:26.904Z,81.90
2019-03-03T17:02:56.253Z,81.80
2019-03-03T17:05:29.039Z,81.60
2019-03-03T17:07:58.320Z,81.70
2019-03-03T17:10:27.695Z,81.50
2019-03-03T17:12:56.972Z,81.50
2019-03-03T17:15:27.731Z,81.40
2019-03-03T17:17:57.002Z,81.20
2019-03-03T17:20:26.312Z,81.10
2019-03-03T17:22:55.634Z,81.10
2019-03-03T17:25:27.989Z,81.10
2019-03-03T17:27:57.273Z,81.10
2019-03-03T17:30:27.686Z,81.10
2019-03-03T17:32:56.974Z,80.90
2019-03-03T17:35:26.256Z,80.80
2019-03-03T17:37:56.709Z,80.90
2019-03-03T17:40:27.344Z,80.90
2019-03-03T17:42:56.625Z,80.80
2019-03-03T17:45:25.921Z,80.70
2019-03-03T17:47:55.212Z,80.70
2019-03-03T17:50:26.489Z,80.70
2019-03-03T17:52:55.779Z,80.70
2019-03-03T17:55:25.119Z,80.80
2019-03-03T17:57:54.399Z,80.60
2019-03-03T18:00:45.933Z,80.60
2019-03-03T18:03:15.278Z,80.60
2019-03-03T18:05:44.548Z,80.50
2019-03-03T18:08:13.839Z,80.50
2019-03-03T18:10:43.156Z,80.30
2019-03-03T18:13:12.452Z,80.30
2019-03-03T18:15:41.745Z,80.10
2019-03-03T18:18:11.033Z,80.20
2019-03-03T18:20:40.310Z,80.10
2019-03-03T18:23:09.598Z,80.10
2019-03-03T18:25:38.860Z,80.10
2019-03-03T18:28:08.150Z,80.10
2019-03-03T18:30:37.433Z,80.00
2019-03-03T18:33:06.705Z,80.00
2019-03-03T18:35:35.981Z,80.00
2019-03-03T18:38:05.260Z,79.90
2019-03-03T18:40:34.527Z,79.70
2019-03-03T18:43:03.813Z,79.80
2019-03-03T18:45:33.100Z,79.70
2019-03-03T18:48:02.384Z,79.60
2019-03-03T18:50:31.651Z,79.40
2019-03-03T18:53:00.952Z,79.30
2019-03-03T18:55:30.298Z,79.20
2019-03-03T18:57:59.569Z,79.20
2019-03-03T19:00:31.276Z,79.30
2019-03-03T19:03:00.637Z,79.30
2019-03-03T19:05:29.900Z,79.40
2019-03-03T19:07:59.249Z,79.30
2019-03-03T19:10:34.358Z,79.20
2019-03-03T19:13:03.708Z,79.40
2019-03-03T19:15:33.475Z,79.30
2019-03-03T19:18:03.262Z,79.40
2019-03-03T19:20:32.516Z,79.40
2019-03-03T19:23:01.798Z,79.40
2019-03-03T19:25:31.141Z,79.40
2019-03-03T19:28:00.405Z,79.40
2019-03-03T19:30:30.062Z,79.40
2019-03-03T19:33:06.173Z,79.40
2019-03-03T19:35:35.525Z,79.40
2019-03-03T19:38:04.884Z,79.40
2019-03-03T19:40:34.136Z,79.50
2019-03-03T19:43:03.412Z,79.40
2019-03-03T19:45:40.824Z,79.40
2019-03-03T19:48:10.595Z,79.30
2019-03-03T19:50:40.146Z,79.20
2019-03-03T19:53:09.590Z,79.20
2019-03-03T19:55:38.839Z,79.30
2019-03-03T19:58:08.118Z,79.30
2019-03-03T20:00:41.848Z,79.30
2019-03-03T20:03:11.180Z,79.30
2019-03-03T20:05:40.451Z,79.40
2019-03-03T20:08:10.700Z,79.40
2019-03-03T20:10:40.051Z,79.50
2019-03-03T20:13:09.421Z,79.60
2019-03-03T20:15:39.152Z,79.50
2019-03-03T20:18:09.965Z,79.60
2019-03-03T20:20:39.513Z,79.70
2019-03-03T20:23:09.947Z,79.70
2019-03-03T20:25:39.230Z,79.70
2019-03-03T20:28:08.577Z,79.60
2019-03-03T20:30:38.889Z,79.90
2019-03-03T20:33:08.242Z,80.20
2019-03-03T20:35:37.596Z,80.40
2019-03-03T20:38:06.868Z,80.50
2019-03-03T20:40:36.140Z,81.40
2019-03-03T20:43:05.425Z,80.70
2019-03-03T20:45:34.709Z,80.90
2019-03-03T20:48:05.027Z,80.80
2019-03-03T20:50:34.318Z,80.90
2019-03-03T20:53:03.593Z,81.00
2019-03-03T20:55:33.154Z,81.00
2019-03-03T20:58:02.425Z,81.00
2019-03-03T21:00:33.517Z,81.10
2019-03-03T21:03:02.802Z,81.10
2019-03-03T21:05:32.083Z,81.30
2019-03-03T21:08:01.354Z,81.50
2019-03-03T21:10:31.767Z,81.60
2019-03-03T21:13:01.053Z,81.60
2019-03-03T21:15:30.338Z,81.90
2019-03-03T21:17:59.610Z,81.90
2019-03-03T21:20:28.872Z,82.10
2019-03-03T21:22:58.154Z,82.20
2019-03-03T21:25:27.429Z,82.10
2019-03-03T21:27:56.843Z,82.20
2019-03-03T21:30:27.731Z,82.20
2019-03-03T21:32:57.008Z,82.30
2019-03-03T21:35:26.280Z,82.30
2019-03-03T21:37:55.557Z,82.30
2019-03-03T21:40:28.037Z,82.30
2019-03-03T21:42:57.316Z,82.50
2019-03-03T21:45:29.973Z,82.50
2019-03-03T21:47:59.257Z,82.40
2019-03-03T21:50:29.748Z,82.50
2019-03-03T21:52:59.013Z,82.40
2019-03-03T21:55:28.283Z,82.30
2019-03-03T21:57:57.561Z,82.20
2019-03-03T22:00:40.675Z,82.20
2019-03-03T22:03:09.948Z,82.20
2019-03-03T22:05:39.207Z,82.20
2019-03-03T22:08:08.485Z,82.00
2019-03-03T22:10:37.758Z,81.90
2019-03-03T22:13:09.548Z,81.90
2019-03-03T22:15:38.808Z,81.70
2019-03-03T22:18:08.087Z,81.70
2019-03-03T22:20:37.356Z,81.70
2019-03-03T22:23:06.643Z,81.50
2019-03-03T22:25:35.908Z,81.40
2019-03-03T22:28:05.195Z,81.50
2019-03-03T22:30:34.456Z,81.50
2019-03-03T22:33:03.734Z,81.50
2019-03-03T22:35:33.007Z,81.30
2019-03-03T22:38:02.282Z,82.00
2019-03-03T22:40:31.568Z,81.30
2019-03-03T22:43:00.844Z,81.20
2019-03-03T22:45:30.114Z,81.10
2019-03-03T22:47:59.388Z,81.10
2019-03-03T22:50:28.728Z,81.00
2019-03-03T22:52:58.005Z,81.00
2019-03-03T22:55:28.816Z,81.00
2019-03-03T22:57:58.089Z,81.00
2019-03-03T23:00:43.139Z,81.00
2019-03-03T23:03:26.069Z,81.10
2019-03-03T23:06:03.982Z,81.10
2019-03-03T23:08:36.339Z,81.20
2019-03-03T23:11:08.684Z,81.40
2019-03-03T23:13:46.736Z,81.50
2019-03-03T23:16:24.645Z,81.70
2019-03-03T23:19:22.994Z,81.90
2019-03-03T23:22:18.252Z,81.90
2019-03-03T23:24:59.428Z,81.90
2019-03-03T23:27:28.697Z,81.90
2019-03-03T23:29:57.981Z,81.90
2019-03-03T23:32:27.257Z,82.00
2019-03-03T23:34:56.528Z,82.00
2019-03-03T23:37:25.801Z,82.00
2019-03-03T23:39:55.151Z,81.90
2019-03-03T23:42:24.412Z,82.00
2019-03-03T23:44:53.844Z,81.40
2019-03-03T23:47:23.113Z,81.20
2019-03-03T23:49:52.400Z,81.10
2019-03-03T23:52:21.668Z,81.00
2019-03-03T23:54:50.944Z,80.70
2019-03-03T23:57:20.221Z,80.40
2019-03-03T23:59:49.504Z,80.30
